CYBN

CFB Borden Heliport

Borden, Ontario, Canada
METAR CYBN 220700Z AUTO 32007KT 280V350 9SM OVC021 11/09 A3012 RMK SLP198
Observed Flight Rules
Sep-22 @ 07:00 UTC (22 minutes ago) Marginal Visual Flight Rules
Wind Visibility Clouds
320° at 7 knots 9 miles
Temperatures Readings
Current 11°C / 52°F
Dewpoint 9°C / 48°F
Humidity 88%
Altimeter 30.12" Hg
Pressure 1019.8 hPa
Elevation 223
METAR CYBN 220700Z AUTO 32007KT 280V350 9SM OVC021 11/09 A3012 RMK SLP198
Observed Flight Rules
Sep-22 @ 07:00 UTC
(22 minutes ago)
MVFR
Wind Visibility
320° at 7 knots 9 miles
Clouds
Temperature Dewpoint
11°C / 52°F 9°C / 48°F
Humidity Altimeter Pressure
88% 30.12" Hg 1019.8 hPa